Time;durP1;ratioP1;P1;durP2;ratioP2;P2;SDS_P1;SDS_P2;PMS_P1;PMS_P2;Temp;Humidity;BMP_temperature;BMP_pressure;BME280_temperature;BME280_humidity;BME280_pressure;Samples;Min_cycle;Max_cycle;Signal;HPM_P1;HPM_P2
2022/01/29 00:02:11;;;;;;;55.85;32.70;;;;;;;4.81;85.73;102850.97;4991965;28;20046;-77
2022/01/29 00:04:37;;;;;;;68.20;34.05;;;;;;;4.83;85.82;102862.28;4973796;28;20474;-74
2022/01/29 00:07:08;;;;;;;56.83;32.10;;;;;;;4.84;85.82;102848.50;4996293;28;20053;-75
2022/01/29 00:09:47;;;;;;;53.38;31.77;;;;;;;4.83;85.78;102846.72;5001313;28;20133;-74
2022/01/29 00:12:15;;;;;;;55.90;32.85;;;;;;;4.85;85.87;102842.44;5001503;28;20033;-74
2022/01/29 00:14:43;;;;;;;56.42;35.00;;;;;;;4.88;85.78;102833.91;4979417;28;20045;-73
2022/01/29 00:17:11;;;;;;;53.75;32.15;;;;;;;4.88;85.56;102835.63;4972698;28;20051;-76
2022/01/29 00:19:40;;;;;;;56.50;32.25;;;;;;;4.89;85.73;102845.22;4976868;28;20462;-76
2022/01/29 00:22:07;;;;;;;55.55;31.13;;;;;;;4.91;85.54;102834.03;4973577;28;20390;-74
2022/01/29 00:24:33;;;;;;;50.50;29.52;;;;;;;4.93;85.55;102841.91;4986864;28;20172;-76
2022/01/29 00:27:02;;;;;;;54.75;31.65;;;;;;;4.93;85.50;102826.31;4991596;28;20038;-76
2022/01/29 00:29:28;;;;;;;58.70;31.83;;;;;;;4.93;85.80;102836.69;4986255;28;20486;-74
2022/01/29 00:31:54;;;;;;;51.55;30.58;;;;;;;4.94;86.04;102828.09;4984061;28;20458;-76
2022/01/29 00:34:20;;;;;;;58.75;30.55;;;;;;;4.96;85.57;102816.09;4977065;28;20042;-77
2022/01/29 00:36:50;;;;;;;57.45;33.20;;;;;;;4.94;85.77;102813.41;4973434;28;20057;-73
2022/01/29 00:39:19;;;;;;;51.38;32.50;;;;;;;4.96;86.17;102810.88;5007630;28;20122;-76
2022/01/29 00:41:45;;;;;;;52.33;31.83;;;;;;;4.96;86.06;102823.88;4976461;28;20049;-72
2022/01/29 00:44:11;;;;;;;58.17;33.58;;;;;;;4.97;86.04;102807.44;4990343;28;20046;-76
2022/01/29 00:46:41;;;;;;;59.47;36.05;;;;;;;4.99;86.08;102821.41;4987533;28;20092;-76
2022/01/29 00:49:09;;;;;;;61.33;35.05;;;;;;;4.99;86.33;102811.00;5011509;28;20036;-76
2022/01/29 00:51:44;;;;;;;61.35;35.25;;;;;;;4.97;86.03;102787.56;4992326;28;20034;-74
2022/01/29 00:54:09;;;;;;;66.45;32.45;;;;;;;4.97;86.00;102792.75;5006508;28;20026;-76
2022/01/29 00:56:37;;;;;;;58.45;33.92;;;;;;;4.99;86.12;102795.41;4976927;28;20378;-73
2022/01/29 00:59:03;;;;;;;51.28;31.45;;;;;;;4.99;86.11;102792.81;4984119;28;20030;-73
2022/01/29 01:01:31;;;;;;;58.30;32.95;;;;;;;5.01;86.25;102793.75;4983237;28;20045;-76
2022/01/29 01:04:00;;;;;;;58.60;33.40;;;;;;;5.01;86.15;102780.78;4992606;28;20038;-75
2022/01/29 01:06:26;;;;;;;58.75;34.13;;;;;;;5.01;86.02;102768.69;5004974;28;20041;-77
2022/01/29 01:08:53;;;;;;;66.10;32.63;;;;;;;5.03;85.98;102763.56;4994590;28;20079;-77
2022/01/29 01:11:22;;;;;;;57.65;32.65;;;;;;;5.02;86.60;102760.03;4989960;28;20045;-76
2022/01/29 01:13:49;;;;;;;57.40;34.10;;;;;;;5.04;86.40;102752.31;4975611;28;20042;-75
2022/01/29 01:16:20;;;;;;;59.42;31.98;;;;;;;5.03;86.23;102750.56;4972607;28;20039;-76
2022/01/29 01:18:49;;;;;;;59.30;32.38;;;;;;;5.05;86.30;102746.28;4993720;28;20044;-72
2022/01/29 01:21:18;;;;;;;54.72;33.05;;;;;;;5.04;85.96;102739.31;4988553;28;20074;-75
2022/01/29 01:23:47;;;;;;;54.45;33.60;;;;;;;5.05;86.69;102722.03;5009710;28;20095;-75
2022/01/29 01:26:13;;;;;;;55.50;30.60;;;;;;;5.06;86.40;102724.69;4993800;28;20041;-75
2022/01/29 01:28:43;;;;;;;64.65;34.17;;;;;;;5.07;86.59;102725.56;4974967;28;20060;-76
2022/01/29 01:31:10;;;;;;;50.30;32.85;;;;;;;5.09;86.84;102717.03;5015345;28;20058;-76
2022/01/29 01:33:36;;;;;;;57.40;32.42;;;;;;;5.06;86.94;102709.09;4992558;28;20030;-75
2022/01/29 01:36:07;;;;;;;53.00;32.65;;;;;;;5.08;87.32;102702.25;4977501;28;20049;-75
2022/01/29 01:38:43;;;;;;;51.80;32.45;;;;;;;5.08;87.50;102707.44;4978575;28;20075;-74
2022/01/29 01:41:13;;;;;;;60.05;33.92;;;;;;;5.07;87.25;102705.69;4990164;28;20490;-76
2022/01/29 01:43:41;;;;;;;52.13;32.60;;;;;;;5.09;87.61;102703.16;4987757;28;20041;-76
2022/01/29 01:46:07;;;;;;;51.00;33.65;;;;;;;5.08;87.61;102702.25;4992489;28;20041;-75
2022/01/29 01:48:33;;;;;;;59.30;33.72;;;;;;;5.10;87.59;102710.09;4971718;28;20036;-77
2022/01/29 01:50:59;;;;;;;54.25;31.85;;;;;;;5.09;87.12;102706.63;4972086;28;20054;-75
2022/01/29 01:53:24;;;;;;;47.15;31.75;;;;;;;5.10;87.10;102698.00;5008575;28;20175;-75
2022/01/29 01:55:50;;;;;;;51.88;32.17;;;;;;;5.10;87.38;102694.50;4999268;28;20044;-75
2022/01/29 01:58:17;;;;;;;55.17;33.25;;;;;;;5.09;87.77;102684.97;5005415;28;20119;-75
2022/01/29 02:00:43;;;;;;;45.35;30.55;;;;;;;5.09;88.02;102685.84;4977129;28;20045;-75
2022/01/29 02:03:09;;;;;;;53.75;30.90;;;;;;;5.08;88.07;102696.16;4993110;28;20065;-76
2022/01/29 02:05:35;;;;;;;47.40;31.35;;;;;;;5.05;88.08;102683.94;5001886;28;20022;-75
2022/01/29 02:08:05;;;;;;;49.88;30.52;;;;;;;5.06;88.00;102672.72;4973977;28;20227;-76
2022/01/29 02:10:31;;;;;;;44.88;29.52;;;;;;;5.03;88.25;102678.69;4988654;28;20029;-75
2022/01/29 02:13:02;;;;;;;60.63;32.20;;;;;;;5.03;88.35;102668.28;5009800;28;20184;-76
2022/01/29 02:15:29;;;;;;;46.92;30.45;;;;;;;5.02;88.67;102669.09;5009036;28;20042;-76
2022/01/29 02:17:57;;;;;;;53.05;30.52;;;;;;;5.00;88.68;102662.09;5007881;28;20049;-75
2022/01/29 02:20:26;;;;;;;51.88;29.65;;;;;;;4.97;89.17;102657.66;4987251;28;20042;-75
2022/01/29 02:22:52;;;;;;;44.30;28.80;;;;;;;4.95;89.14;102659.28;5009431;28;20091;-75
2022/01/29 02:25:54;;;;;;;44.08;28.27;;;;;;;4.96;89.11;102655.88;5000793;28;20034;-75
2022/01/29 02:28:24;;;;;;;42.78;26.30;;;;;;;4.95;89.54;102650.63;5001013;28;20084;-75
2022/01/29 02:30:59;;;;;;;46.22;27.52;;;;;;;4.97;89.61;102659.34;4990206;28;20069;-76
2022/01/29 02:33:29;;;;;;;40.42;26.45;;;;;;;4.96;89.73;102649.78;5008139;28;20033;-75
2022/01/29 02:35:59;;;;;;;46.53;26.73;;;;;;;4.97;90.08;102646.34;4999549;28;20041;-76
2022/01/29 02:38:27;;;;;;;50.80;27.27;;;;;;;4.96;90.37;102639.41;5013774;28;20296;-71
2022/01/29 02:41:00;;;;;;;42.47;28.10;;;;;;;4.94;90.28;102641.03;4989502;28;20112;-76
2022/01/29 02:43:33;;;;;;;39.28;26.30;;;;;;;4.92;90.58;102632.31;5005729;28;20045;-76
2022/01/29 02:46:06;;;;;;;44.92;28.30;;;;;;;4.91;90.28;102627.94;5009431;28;20030;-75
2022/01/29 02:48:34;;;;;;;39.63;26.95;;;;;;;4.92;90.63;102635.78;5006688;28;20033;-75
2022/01/29 02:51:03;;;;;;;45.10;26.45;;;;;;;4.89;90.91;102630.47;4975482;28;20119;-76
2022/01/29 02:53:34;;;;;;;45.42;26.75;;;;;;;4.90;90.96;102629.66;5022692;28;20112;-77
2022/01/29 02:56:01;;;;;;;45.67;27.15;;;;;;;4.90;90.88;102634.84;4986683;28;20042;-74
2022/01/29 02:58:30;;;;;;;43.00;25.70;;;;;;;4.90;91.16;102616.66;4975245;28;20104;-76
2022/01/29 03:00:56;;;;;;;33.35;24.67;;;;;;;4.93;91.23;102623.66;4992862;28;20041;-76
2022/01/29 03:03:22;;;;;;;40.38;25.05;;;;;;;4.94;90.82;102621.16;5006814;28;20042;-77
2022/01/29 03:05:53;;;;;;;35.97;24.85;;;;;;;4.94;91.07;102618.56;4989150;28;20393;-74
2022/01/29 03:08:19;;;;;;;35.78;25.33;;;;;;;4.95;91.32;102612.50;5020044;28;20042;-76
2022/01/29 03:10:48;;;;;;;34.13;24.38;;;;;;;5.00;90.95;102610.13;4986483;28;20374;-76
2022/01/29 03:13:18;;;;;;;40.28;24.92;;;;;;;5.00;91.13;102605.81;4975374;28;20141;-72
2022/01/29 03:15:46;;;;;;;37.65;23.83;;;;;;;4.99;91.34;102597.94;4990613;28;20449;-72
2022/01/29 03:18:12;;;;;;;43.80;25.00;;;;;;;5.00;91.28;102594.53;4989260;28;20038;-72
2022/01/29 03:20:38;;;;;;;43.17;27.67;;;;;;;5.03;91.21;102594.66;4986769;28;20440;-71
2022/01/29 03:23:10;;;;;;;37.20;24.35;;;;;;;5.03;91.22;102586.84;4975495;28;20350;-75
2022/01/29 03:25:36;;;;;;;41.92;25.42;;;;;;;5.04;91.27;102583.41;5007530;28;20036;-75
2022/01/29 03:28:03;;;;;;;35.08;24.10;;;;;;;5.04;91.55;102580.81;5003640;28;20121;-76
2022/01/29 03:30:32;;;;;;;32.85;21.23;;;;;;;5.06;91.73;102581.78;4985528;28;20510;-72
2022/01/29 03:32:57;;;;;;;37.80;25.50;;;;;;;5.07;91.55;102573.16;4992707;28;20038;-77
2022/01/29 03:35:23;;;;;;;33.63;23.27;;;;;;;5.08;91.79;102574.91;4977409;28;20053;-78
2022/01/29 03:37:48;;;;;;;46.95;25.40;;;;;;;5.08;92.25;102574.91;4989421;28;20038;-76
2022/01/29 03:40:14;;;;;;;41.67;25.52;;;;;;;5.10;91.44;102573.28;4985332;28;20031;-76
2022/01/29 03:42:45;;;;;;;35.28;24.80;;;;;;;5.12;92.07;102569.00;5035096;28;20176;-75
2022/01/29 03:45:14;;;;;;;41.97;26.02;;;;;;;5.13;91.81;102568.19;4992670;28;20478;-74
2022/01/29 03:47:39;;;;;;;41.58;26.85;;;;;;;5.14;91.76;102564.78;4981195;28;20038;-77
2022/01/29 03:50:08;;;;;;;41.75;25.90;;;;;;;5.15;91.46;102563.06;4968118;28;20092;-76
2022/01/29 03:52:33;;;;;;;42.20;26.25;;;;;;;5.16;91.80;102564.84;5007467;28;20526;-76
2022/01/29 03:54:58;;;;;;;36.88;25.42;;;;;;;5.14;91.91;102564.78;4978563;28;20199;-76
2022/01/29 03:57:24;;;;;;;44.67;27.77;;;;;;;5.16;92.12;102564.84;4993848;28;20072;-74
2022/01/29 03:59:49;;;;;;;46.75;28.15;;;;;;;5.15;91.77;102550.94;4974740;28;20102;-73
2022/01/29 04:02:15;;;;;;;46.95;27.55;;;;;;;5.17;91.85;102549.28;4996181;28;20376;-75
2022/01/29 04:04:40;;;;;;;43.10;27.92;;;;;;;5.17;91.82;102561.38;4996854;28;20029;-76
2022/01/29 04:07:11;;;;;;;41.85;28.17;;;;;;;5.16;91.82;102557.91;4981334;28;20018;-74
2022/01/29 04:09:39;;;;;;;39.55;28.00;;;;;;;5.17;91.91;102561.38;5010239;28;20025;-76
2022/01/29 04:12:05;;;;;;;44.42;27.25;;;;;;;5.19;91.61;102564.94;5004867;28;20041;-76
2022/01/29 04:14:36;;;;;;;41.50;25.88;;;;;;;5.18;91.73;102555.38;5013245;28;20046;-75
2022/01/29 04:17:03;;;;;;;43.45;25.92;;;;;;;5.17;91.94;102551.88;5013007;28;20435;-75
2022/01/29 04:19:28;;;;;;;48.35;27.00;;;;;;;5.19;92.16;102550.22;5013288;28;20064;-76
2022/01/29 04:21:53;;;;;;;38.03;24.60;;;;;;;5.22;91.69;102548.59;4997458;28;20054;-76
2022/01/29 04:24:19;;;;;;;40.70;24.88;;;;;;;5.22;91.90;102546.00;4995247;28;20701;-75
2022/01/29 04:26:45;;;;;;;42.15;25.33;;;;;;;5.24;91.67;102539.13;5013544;28;20038;-75
2022/01/29 04:29:10;;;;;;;35.00;23.58;;;;;;;5.25;92.01;102538.31;4980333;28;20442;-75
2022/01/29 04:31:43;;;;;;;42.42;24.15;;;;;;;5.27;91.96;102540.13;5012219;28;20421;-76
2022/01/29 04:34:08;;;;;;;33.40;24.25;;;;;;;5.30;91.92;102536.72;4996256;28;20042;-76
2022/01/29 04:36:36;;;;;;;38.67;24.10;;;;;;;5.31;92.11;102536.78;5012732;28;20034;-74
2022/01/29 04:39:03;;;;;;;40.35;26.17;;;;;;;5.33;92.33;102539.44;4980460;28;20034;-75
2022/01/29 04:41:28;;;;;;;38.30;23.55;;;;;;;5.34;92.11;102541.22;5013257;28;20034;-76
2022/01/29 04:43:54;;;;;;;36.90;22.60;;;;;;;5.38;91.83;102540.50;4995879;28;20037;-76
2022/01/29 04:46:19;;;;;;;36.60;22.17;;;;;;;5.37;91.91;102533.53;5013059;28;20037;-76
2022/01/29 04:48:45;;;;;;;35.72;23.55;;;;;;;5.39;92.02;102534.50;4996523;28;20111;-76
2022/01/29 04:51:10;;;;;;;36.70;23.52;;;;;;;5.40;92.20;102523.25;4980551;28;20397;-75
2022/01/29 04:53:36;;;;;;;39.70;24.52;;;;;;;5.41;92.09;102527.63;5012237;28;20042;-74
2022/01/29 04:56:02;;;;;;;39.67;25.38;;;;;;;5.44;92.36;102522.53;4980266;28;20068;-75
2022/01/29 04:58:27;;;;;;;37.10;23.77;;;;;;;5.44;92.12;102514.72;4996328;28;20092;-76
2022/01/29 05:00:53;;;;;;;41.60;24.63;;;;;;;5.45;92.21;102507.84;4976736;28;20030;-73
2022/01/29 05:03:18;;;;;;;34.97;24.02;;;;;;;5.48;92.95;102500.13;4996137;28;20390;-75
2022/01/29 05:05:44;;;;;;;38.28;23.00;;;;;;;5.48;92.75;102493.22;4995615;28;20478;-77
2022/01/29 05:08:12;;;;;;;39.97;24.73;;;;;;;5.52;92.34;102496.81;4996365;28;20509;-75
2022/01/29 05:10:40;;;;;;;35.67;24.02;;;;;;;5.51;92.09;102495.91;5009763;28;20133;-75
2022/01/29 05:13:12;;;;;;;37.80;25.30;;;;;;;5.53;92.63;102499.47;4996281;28;20049;-75
2022/01/29 05:15:41;;;;;;;40.53;25.48;;;;;;;5.57;92.75;102494.38;4996142;28;20045;-76
2022/01/29 05:29:09;;;;;;;41.85;26.88;;;;;;;5.66;92.69;102484.28;5001570;28;20398;-76
2022/01/29 05:31:35;;;;;;;39.95;26.23;;;;;;;5.66;92.43;102489.50;5011290;28;20042;-77
2022/01/29 05:34:01;;;;;;;41.08;28.25;;;;;;;5.68;93.05;102491.31;5011411;28;20033;-76
2022/01/29 05:36:27;;;;;;;45.08;26.65;;;;;;;5.69;92.41;102482.69;4995620;28;20038;-77
2022/01/29 05:38:52;;;;;;;41.30;26.85;;;;;;;5.70;92.81;102484.47;5010254;28;20040;-75
2022/01/29 05:41:18;;;;;;;47.15;27.17;;;;;;;5.72;93.17;102481.91;5012279;28;20393;-75
2022/01/29 05:43:44;;;;;;;43.00;27.58;;;;;;;5.76;92.68;102489.00;4972453;28;20030;-77
2022/01/29 05:46:13;;;;;;;46.60;31.33;;;;;;;5.75;93.20;102478.50;4995894;28;20041;-74
2022/01/29 05:48:42;;;;;;;41.20;29.43;;;;;;;5.76;93.14;102470.78;4994144;28;20080;-75
2022/01/29 05:51:08;;;;;;;44.47;28.50;;;;;;;5.78;93.24;102479.53;5005783;28;20447;-77
2022/01/29 05:53:42;;;;;;;39.05;28.38;;;;;;;5.80;93.26;102484.78;5007239;28;20059;-75
2022/01/29 05:56:08;;;;;;;57.03;29.33;;;;;;;5.81;92.92;102471.81;5009288;28;20092;-75
2022/01/29 05:58:36;;;;;;;46.72;28.48;;;;;;;5.83;93.14;102470.16;4978728;28;20034;-75
2022/01/29 06:01:08;;;;;;;48.67;29.08;;;;;;;5.84;93.02;102469.31;4990386;28;20446;-77
2022/01/29 06:03:37;;;;;;;49.17;28.05;;;;;;;5.86;93.29;102461.56;5010277;28;20472;-76
2022/01/29 06:06:06;;;;;;;47.67;29.27;;;;;;;5.86;92.86;102459.88;4977948;28;20034;-76
2022/01/29 06:08:38;;;;;;;43.50;29.02;;;;;;;5.87;93.15;102464.22;4971104;28;20044;-76
2022/01/29 06:11:04;;;;;;;45.13;29.20;;;;;;;5.89;92.83;102459.97;4965042;28;20053;-76
2022/01/29 06:13:30;;;;;;;51.92;30.38;;;;;;;5.92;93.13;102459.19;5003230;28;20378;-75
2022/01/29 06:15:56;;;;;;;47.95;27.70;;;;;;;5.93;93.39;102450.53;4977553;28;20048;-71
2022/01/29 06:18:25;;;;;;;48.28;30.90;;;;;;;5.96;93.33;102454.94;4978024;28;20054;-71
2022/01/29 06:20:53;;;;;;;41.85;28.75;;;;;;;5.96;93.33;102450.66;5010608;28;20121;-72
2022/01/29 06:23:30;;;;;;;46.35;29.90;;;;;;;5.96;93.09;102448.06;4993096;28;20050;-71
2022/01/29 06:25:58;;;;;;;47.00;31.50;;;;;;;5.97;93.37;102449.81;4979235;28;20337;-76
2022/01/29 06:28:24;;;;;;;47.47;29.70;;;;;;;5.99;92.77;102444.66;4989469;28;20049;-75
2022/01/29 06:30:55;;;;;;;47.45;28.35;;;;;;;6.00;92.95;102443.84;5007852;28;20077;-76
2022/01/29 06:33:24;;;;;;;44.38;29.33;;;;;;;6.03;92.77;102439.66;4972359;28;20051;-76
2022/01/29 06:35:53;;;;;;;51.72;30.80;;;;;;;6.04;93.15;102437.91;5016871;28;20140;-75
2022/01/29 06:38:20;;;;;;;46.80;29.92;;;;;;;6.07;92.93;102440.59;4993063;28;20056;-75
2022/01/29 06:40:50;;;;;;;45.83;30.73;;;;;;;6.09;93.41;102438.94;5008924;28;20037;-77
2022/01/29 06:43:16;;;;;;;46.38;31.98;;;;;;;6.10;93.05;102430.28;4994003;28;21268;-76
2022/01/29 06:45:44;;;;;;;44.08;29.42;;;;;;;6.11;93.49;102431.19;4977433;28;20038;-76
2022/01/29 06:48:11;;;;;;;46.28;29.02;;;;;;;6.12;93.23;102433.84;4992038;28;20042;-75
2022/01/29 06:50:41;;;;;;;56.95;30.50;;;;;;;6.14;93.15;102416.56;4992748;28;20042;-76
2022/01/29 06:53:10;;;;;;;46.28;31.08;;;;;;;6.16;93.30;102424.41;5009234;28;20037;-76
2022/01/29 06:55:36;;;;;;;49.77;30.33;;;;;;;6.17;93.36;102415.78;5008940;28;20104;-77
2022/01/29 06:58:05;;;;;;;43.30;30.35;;;;;;;6.18;92.69;102422.75;5010327;28;20293;-75
2022/01/29 07:00:31;;;;;;;41.78;29.08;;;;;;;6.19;92.35;102408.88;5008767;28;20422;-76
2022/01/29 07:02:59;;;;;;;43.22;29.13;;;;;;;6.20;93.22;102405.44;4986676;28;20029;-76
2022/01/29 07:05:25;;;;;;;51.15;30.83;;;;;;;6.19;93.07;102404.56;5005756;28;20068;-76
2022/01/29 07:07:54;;;;;;;43.90;29.85;;;;;;;6.22;92.65;102404.66;4990472;28;20058;-76
2022/01/29 07:10:20;;;;;;;45.85;29.05;;;;;;;6.23;93.39;102398.63;4990572;28;20478;-74
2022/01/29 07:12:46;;;;;;;47.80;30.65;;;;;;;6.24;92.68;102402.97;4992927;28;20042;-77
2022/01/29 07:15:12;;;;;;;47.33;30.20;;;;;;;6.26;92.88;102409.97;4990665;28;20333;-76
2022/01/29 07:17:38;;;;;;;42.13;29.92;;;;;;;6.27;92.27;102397.00;4990158;28;20084;-74
2022/01/29 07:20:05;;;;;;;43.95;30.20;;;;;;;6.28;92.35;102395.25;4993671;28;20104;-76
2022/01/29 07:22:31;;;;;;;41.22;30.25;;;;;;;6.32;92.50;102399.72;4991655;28;20076;-72
2022/01/29 07:24:56;;;;;;;39.78;29.38;;;;;;;6.34;93.34;102393.75;4972802;28;20069;-74
2022/01/29 07:27:23;;;;;;;48.03;29.15;;;;;;;6.35;92.72;102400.72;4985949;28;20042;-76
2022/01/29 07:29:48;;;;;;;43.22;28.92;;;;;;;6.37;92.64;102399.03;4990162;28;20093;-75
2022/01/29 07:32:14;;;;;;;45.35;28.65;;;;;;;6.39;93.16;102397.38;4975045;28;20129;-75
2022/01/29 07:34:40;;;;;;;41.35;28.42;;;;;;;6.40;93.14;102399.13;4994117;28;20052;-75
2022/01/29 07:37:05;;;;;;;38.97;29.13;;;;;;;6.41;93.23;102394.81;4996835;28;20065;-78
2022/01/29 07:39:32;;;;;;;41.05;28.63;;;;;;;6.43;93.44;102392.25;5012588;28;20033;-75
2022/01/29 07:41:57;;;;;;;43.22;31.17;;;;;;;6.45;93.02;102396.69;5014586;28;20033;-70
2022/01/29 07:44:23;;;;;;;41.95;29.42;;;;;;;6.49;93.54;102395.03;5013568;28;20393;-79
2022/01/29 07:46:49;;;;;;;39.05;28.05;;;;;;;6.50;92.91;102400.28;4980422;28;20083;-73
2022/01/29 07:49:17;;;;;;;44.33;28.08;;;;;;;6.52;93.87;102393.44;5013988;28;20037;-74
2022/01/29 07:51:45;;;;;;;37.88;28.20;;;;;;;6.53;93.48;102397.78;4997493;28;20038;-76
2022/01/29 07:54:13;;;;;;;43.25;27.25;;;;;;;6.56;93.15;102390.06;4997051;28;20029;-76
2022/01/29 07:56:38;;;;;;;41.20;28.77;;;;;;;6.59;93.14;102390.16;5013875;28;20034;-76
2022/01/29 07:59:04;;;;;;;41.30;27.48;;;;;;;6.61;93.38;102387.59;4997116;28;20057;-76
2022/01/29 08:01:30;;;;;;;44.35;28.35;;;;;;;6.63;92.92;102387.66;4993609;28;20034;-76
2022/01/29 08:03:55;;;;;;;38.30;26.40;;;;;;;6.65;93.89;102386.88;5012885;28;20037;-76
2022/01/29 08:06:23;;;;;;;40.55;28.02;;;;;;;6.69;93.94;102378.28;5011498;28;20112;-76
2022/01/29 08:08:52;;;;;;;35.58;27.67;;;;;;;6.73;93.39;102376.66;4996185;28;20030;-76
2022/01/29 08:11:19;;;;;;;40.85;29.10;;;;;;;6.75;93.36;102372.34;4996788;28;20482;-76
2022/01/29 08:13:46;;;;;;;38.33;28.20;;;;;;;6.78;93.64;102374.16;5012603;28;20030;-76
2022/01/29 08:16:13;;;;;;;41.45;29.25;;;;;;;6.82;92.95;102368.22;5012005;28;20030;-76
2022/01/29 08:18:39;;;;;;;37.17;26.27;;;;;;;6.83;93.59;102365.66;5009716;28;20076;-76
2022/01/29 08:21:04;;;;;;;44.55;27.00;;;;;;;6.87;93.84;102359.69;4996045;28;20037;-76
2022/01/29 08:23:30;;;;;;;43.33;28.27;;;;;;;6.89;93.62;102358.00;4992082;28;20025;-76
2022/01/29 08:25:55;;;;;;;38.45;27.50;;;;;;;6.92;93.34;102358.09;4995365;28;20419;-75
2022/01/29 08:28:23;;;;;;;39.78;27.52;;;;;;;6.96;93.83;102352.97;4996582;28;20049;-75
2022/01/29 08:30:49;;;;;;;41.15;27.83;;;;;;;7.00;93.74;102357.44;5012222;28;20061;-75
2022/01/29 08:33:18;;;;;;;39.67;28.92;;;;;;;7.04;93.92;102354.03;4970922;28;20033;-76
2022/01/29 08:35:45;;;;;;;46.78;30.85;;;;;;;7.08;92.81;102354.19;4985398;28;20555;-75
2022/01/29 08:38:12;;;;;;;39.55;29.48;;;;;;;7.12;92.97;102344.72;4989883;28;20069;-76
2022/01/29 08:40:39;;;;;;;38.08;28.10;;;;;;;7.14;93.38;102348.25;5005430;28;20548;-76
2022/01/29 08:43:05;;;;;;;38.33;28.63;;;;;;;7.20;93.25;102348.41;4996644;28;20033;-76
2022/01/29 08:45:31;;;;;;;40.05;27.00;;;;;;;7.22;92.97;102338.03;4993449;28;20030;-75
2022/01/29 08:47:58;;;;;;;38.22;27.13;;;;;;;7.26;93.31;102339.88;5009195;28;20112;-76
2022/01/29 08:50:27;;;;;;;39.35;27.55;;;;;;;7.29;92.96;102345.16;4995719;28;20038;-75
2022/01/29 08:52:52;;;;;;;40.15;27.73;;;;;;;7.32;92.76;102336.53;5007953;28;20056;-75
2022/01/29 08:55:18;;;;;;;36.85;28.58;;;;;;;7.36;92.85;102347.06;4983858;28;20431;-76
2022/01/29 08:57:43;;;;;;;36.25;27.38;;;;;;;7.37;92.40;102333.22;4987881;28;20037;-75
2022/01/29 09:00:10;;;;;;;36.55;27.42;;;;;;;7.41;92.62;102315.88;5005414;28;20557;-76
2022/01/29 09:02:36;;;;;;;37.28;28.92;;;;;;;7.42;92.41;102320.28;5002724;28;20064;-75
2022/01/29 09:05:02;;;;;;;38.08;26.90;;;;;;;7.45;92.72;102323.81;4989447;28;20485;-76
2022/01/29 09:07:28;;;;;;;37.67;27.08;;;;;;;7.45;92.22;102322.94;4980369;28;20030;-76
2022/01/29 09:09:54;;;;;;;41.60;27.58;;;;;;;7.47;91.94;102310.84;4983768;28;20022;-75
2022/01/29 09:12:20;;;;;;;36.60;26.35;;;;;;;7.49;92.47;102314.38;5007550;28;20017;-76
2022/01/29 09:14:46;;;;;;;35.85;25.85;;;;;;;7.50;91.94;102310.91;4982464;28;20398;-75
2022/01/29 09:17:11;;;;;;;35.13;25.70;;;;;;;7.52;92.17;102298.78;5009997;28;20025;-75
2022/01/29 09:19:37;;;;;;;39.63;28.58;;;;;;;7.56;92.18;102303.25;4996548;28;20042;-76
2022/01/29 09:22:03;;;;;;;40.28;26.52;;;;;;;7.58;92.37;102304.13;5010342;28;20053;-73
2022/01/29 09:24:29;;;;;;;34.25;26.88;;;;;;;7.61;92.35;102299.03;4978571;28;20042;-76
2022/01/29 09:26:54;;;;;;;37.88;28.70;;;;;;;7.62;91.72;102297.28;4990930;28;20100;-77
2022/01/29 09:29:20;;;;;;;33.17;27.15;;;;;;;7.67;92.44;102307.81;4984739;28;20044;-76
2022/01/29 09:31:46;;;;;;;35.10;26.15;;;;;;;7.70;91.80;102305.28;5006626;28;20442;-76
2022/01/29 09:34:13;;;;;;;38.15;25.05;;;;;;;7.72;91.80;102301.00;4987129;28;20066;-76
2022/01/29 09:36:41;;;;;;;33.42;25.10;;;;;;;7.75;91.75;102314.13;5005042;28;20092;-76
2022/01/29 09:39:07;;;;;;;37.30;26.98;;;;;;;7.79;91.64;102308.13;4983393;28;20034;-75
2022/01/29 09:41:33;;;;;;;31.83;24.85;;;;;;;7.82;91.35;102312.53;4997297;28;20192;-76
2022/01/29 09:43:58;;;;;;;35.63;23.55;;;;;;;7.83;91.20;102315.19;4995156;28;20124;-76
2022/01/29 09:46:30;;;;;;;34.35;22.83;;;;;;;7.86;91.78;102315.25;4983902;28;20714;-77
2022/01/29 09:48:58;;;;;;;33.17;23.45;;;;;;;7.88;91.35;102316.16;5005616;28;20029;-76
2022/01/29 09:51:28;;;;;;;28.25;23.15;;;;;;;7.92;90.84;102318.00;5005239;28;20177;-75
2022/01/29 09:53:53;;;;;;;30.83;21.87;;;;;;;7.95;91.14;102315.44;4982282;28;20088;-76
2022/01/29 09:56:19;;;;;;;30.13;23.05;;;;;;;7.98;91.20;102315.50;4996758;28;20450;-75
2022/01/29 09:58:44;;;;;;;26.52;22.45;;;;;;;8.00;91.01;102315.53;4994902;28;20083;-76
2022/01/29 10:01:11;;;;;;;26.02;21.98;;;;;;;8.01;90.78;102324.28;5006526;28;20482;-75
2022/01/29 10:03:36;;;;;;;28.42;22.05;;;;;;;8.02;90.40;102318.22;4992093;28;20060;-75
2022/01/29 10:06:03;;;;;;;32.58;22.33;;;;;;;8.05;90.16;102321.75;5001876;28;20417;-76
2022/01/29 10:08:40;;;;;;;36.47;23.33;;;;;;;8.07;90.64;102324.41;4982490;28;20045;-76
2022/01/29 10:11:20;;;;;;;28.02;21.88;;;;;;;8.11;90.41;102315.81;5003088;28;20084;-76
2022/01/29 10:13:45;;;;;;;31.35;21.80;;;;;;;8.14;90.76;102316.72;5019767;28;20037;-76
2022/01/29 10:16:12;;;;;;;27.75;21.67;;;;;;;8.19;90.50;102308.13;4975253;28;20092;-76
2022/01/29 10:18:45;;;;;;;26.63;21.20;;;;;;;8.21;89.68;102304.69;5007002;28;20187;-76
2022/01/29 10:21:36;;;;;;;26.25;20.08;;;;;;;8.24;90.08;102304.75;4983384;28;20034;-75
2022/01/29 10:24:15;;;;;;;26.05;21.08;;;;;;;8.29;89.63;102300.53;4993057;28;20129;-75
2022/01/29 10:26:43;;;;;;;23.60;20.17;;;;;;;8.30;89.83;102302.31;4997962;28;20375;-75
2022/01/29 10:29:15;;;;;;;31.25;22.27;;;;;;;8.33;89.23;102298.84;5004974;28;20030;-74
2022/01/29 10:31:46;;;;;;;21.65;19.02;;;;;;;8.37;89.20;102290.22;4993905;28;20074;-76
2022/01/29 10:34:23;;;;;;;26.17;21.08;;;;;;;8.43;89.45;102273.81;5001788;28;20045;-76
2022/01/29 10:37:14;;;;;;;21.95;19.42;;;;;;;8.52;89.18;102260.06;5006116;28;20041;-75
2022/01/29 10:39:45;;;;;;;24.25;19.13;;;;;;;8.60;88.30;102261.09;4998778;28;20041;-75
2022/01/29 10:42:14;;;;;;;;;;;;;;;8.70;88.59;102251.72;4992886;28;20545;-75
2022/01/29 10:44:45;;;;;;;23.70;18.73;;;;;;;8.74;87.82;102264.00;4985439;28;19949;-75
2022/01/29 10:47:12;;;;;;;;;;;;;;;8.81;87.86;102258.03;5009951;28;20116;-73
2022/01/29 10:49:44;;;;;;;22.58;19.63;;;;;;;8.81;87.45;102250.19;4988589;28;19956;-75
2022/01/29 10:52:14;;;;;;;25.73;19.33;;;;;;;8.87;88.03;102252.03;4993361;28;20109;-75
2022/01/29 10:54:42;;;;;;;21.75;18.58;;;;;;;8.89;87.53;102251.19;5006794;28;20493;-75
2022/01/29 10:57:13;;;;;;;22.08;18.17;;;;;;;8.91;87.00;102232.94;4994988;28;20034;-75
2022/01/29 10:59:50;;;;;;;20.73;17.98;;;;;;;8.93;86.83;102237.31;5015580;28;20029;-75
2022/01/29 11:02:17;;;;;;;20.67;17.30;;;;;;;8.97;86.52;102244.34;5002745;28;20165;-74
2022/01/29 11:04:43;;;;;;;19.83;16.88;;;;;;;8.99;86.12;102247.91;4989056;28;20026;-76
2022/01/29 11:07:18;;;;;;;21.55;16.75;;;;;;;9.00;86.09;102239.19;5003166;28;20556;-75
2022/01/29 11:09:46;;;;;;;19.98;16.80;;;;;;;9.00;85.92;102233.94;4987703;28;20030;-76
2022/01/29 11:12:16;;;;;;;20.95;16.33;;;;;;;9.00;85.56;102228.72;4987640;28;20044;-76
2022/01/29 11:14:42;;;;;;;17.27;14.15;;;;;;;9.01;85.66;102222.66;5006448;28;20039;-73
2022/01/29 11:17:10;;;;;;;17.02;13.80;;;;;;;9.03;85.34;102238.34;4990844;28;20029;-73
2022/01/29 11:19:38;;;;;;;16.13;13.15;;;;;;;9.06;85.12;102222.72;4997938;28;20843;-75
2022/01/29 11:22:12;;;;;;;17.02;13.98;;;;;;;9.07;85.32;102219.25;4983626;28;20085;-76
2022/01/29 11:24:40;;;;;;;13.55;11.60;;;;;;;9.08;84.92;102209.66;5004786;28;20119;-75
2022/01/29 11:27:26;;;;;;;18.67;12.70;;;;;;;9.10;85.01;102223.66;4995634;28;20116;-75
2022/01/29 11:30:01;;;;;;;17.15;12.10;;;;;;;9.08;85.01;102201.81;4987349;28;20196;-77
2022/01/29 11:32:28;;;;;;;13.82;11.98;;;;;;;9.10;84.78;102208.84;5007733;28;20096;-76